createdAt,value
2022-12-22T00:02:18.441Z,9.40
2022-12-22T00:05:05.123Z,9.40
2022-12-22T00:07:50.761Z,9.40
2022-12-22T00:10:36.478Z,9.40
2022-12-22T00:13:22.513Z,9.40
2022-12-22T00:16:08.376Z,9.40
2022-12-22T00:18:53.995Z,9.40
2022-12-22T00:21:39.425Z,9.50
2022-12-22T00:24:24.985Z,9.40
2022-12-22T00:27:10.448Z,9.50
2022-12-22T00:29:57.918Z,9.50
2022-12-22T00:32:46.248Z,9.50
2022-12-22T00:35:32.843Z,9.50
2022-12-22T00:38:18.322Z,9.50
2022-12-22T00:41:03.906Z,9.50
2022-12-22T00:43:49.507Z,9.50
2022-12-22T00:46:36.344Z,9.60
2022-12-22T00:49:22.053Z,9.50
2022-12-22T00:52:07.619Z,9.60
2022-12-22T00:54:53.244Z,9.50
2022-12-22T00:57:45.804Z,9.60
2022-12-22T01:00:35.974Z,9.60
2022-12-22T01:03:22.050Z,9.50
2022-12-22T01:06:07.552Z,9.60
2022-12-22T01:08:54.149Z,9.60
2022-12-22T01:11:39.577Z,9.60
2022-12-22T01:14:31.666Z,9.60
2022-12-22T01:17:17.175Z,9.60
2022-12-22T01:20:02.833Z,9.60
2022-12-22T01:22:48.326Z,9.60
2022-12-22T01:25:40.675Z,9.60
2022-12-22T01:28:34.589Z,9.60
2022-12-22T01:31:41.820Z,9.60
2022-12-22T01:34:27.625Z,9.60
2022-12-22T01:40:28.062Z,9.60
2022-12-22T01:43:13.675Z,9.50
2022-12-22T01:45:59.189Z,9.50
2022-12-22T01:48:46.419Z,9.50
2022-12-22T01:51:34.531Z,9.50
2022-12-22T01:54:19.987Z,9.50
2022-12-22T01:57:07.043Z,9.50
2022-12-22T01:59:52.953Z,9.50
2022-12-22T02:02:40.119Z,9.50
2022-12-22T02:05:28.833Z,9.50
2022-12-22T02:08:17.433Z,9.40
2022-12-22T02:11:09.143Z,9.40
2022-12-22T02:14:07.149Z,9.30
2022-12-22T02:17:03.890Z,9.30
2022-12-22T02:19:55.521Z,9.40
2022-12-22T02:22:48.670Z,9.40
2022-12-22T02:25:36.338Z,9.40
2022-12-22T02:28:22.609Z,9.40
2022-12-22T02:31:09.344Z,9.40
2022-12-22T02:33:54.890Z,9.40
2022-12-22T02:36:50.159Z,9.50
2022-12-22T02:39:43.398Z,9.50
2022-12-22T02:42:35.156Z,9.50
2022-12-22T02:45:28.372Z,9.50
2022-12-22T02:48:13.842Z,9.50
2022-12-22T02:51:04.297Z,9.50
2022-12-22T02:53:50.598Z,9.50
2022-12-22T02:56:36.280Z,9.50
2022-12-22T02:59:21.868Z,9.50
2022-12-22T03:02:07.807Z,9.50
2022-12-22T03:04:53.351Z,9.50
2022-12-22T03:07:38.901Z,9.50
2022-12-22T03:10:25.132Z,9.50
2022-12-22T03:13:10.708Z,9.50
2022-12-22T03:15:56.426Z,9.50
2022-12-22T03:18:42.116Z,9.50
2022-12-22T03:21:27.493Z,9.50
2022-12-22T03:24:13.172Z,9.50
2022-12-22T03:26:39.910Z,9.50
2022-12-22T03:29:07.114Z,9.40
2022-12-22T03:31:33.854Z,9.40
2022-12-22T03:34:00.531Z,9.40
2022-12-22T03:36:27.203Z,9.40
2022-12-22T03:38:53.882Z,9.40
2022-12-22T03:41:39.250Z,9.40
2022-12-22T03:44:24.781Z,9.40
2022-12-22T03:46:51.567Z,9.40
2022-12-22T03:49:19.397Z,9.40
2022-12-22T03:51:47.528Z,9.50
2022-12-22T03:54:16.050Z,9.50
2022-12-22T03:56:42.883Z,9.50
2022-12-22T03:59:09.825Z,9.50
2022-12-22T04:01:39.245Z,9.50
2022-12-22T04:04:06.236Z,9.50
2022-12-22T04:06:32.957Z,9.50
2022-12-22T04:08:59.720Z,9.50
2022-12-22T04:11:45.279Z,9.50
2022-12-22T04:14:11.972Z,9.50
2022-12-22T04:16:38.646Z,9.50
2022-12-22T04:19:06.641Z,9.50
2022-12-22T04:21:33.531Z,9.50
2022-12-22T04:24:25.812Z,9.50
2022-12-22T04:26:52.961Z,9.50
2022-12-22T04:29:20.016Z,9.50
2022-12-22T04:31:46.886Z,9.50
2022-12-22T04:34:14.662Z,9.50
2022-12-22T04:36:41.642Z,9.50
2022-12-22T04:39:08.385Z,9.50
2022-12-22T04:41:35.208Z,9.50
2022-12-22T04:44:01.931Z,9.50
2022-12-22T04:46:28.649Z,9.50
2022-12-22T04:48:59.970Z,9.50
2022-12-22T04:51:27.342Z,9.50
2022-12-22T04:53:53.969Z,9.50
2022-12-22T04:56:20.674Z,9.50
2022-12-22T04:58:47.393Z,9.50
2022-12-22T05:01:15.357Z,9.50
2022-12-22T05:03:42.276Z,9.50
2022-12-22T05:06:09.211Z,9.50
2022-12-22T05:08:36.254Z,9.50
2022-12-22T05:11:03.126Z,9.50
2022-12-22T05:13:30.942Z,9.50
2022-12-22T05:16:08.536Z,9.50
2022-12-22T05:18:35.740Z,9.50
2022-12-22T05:21:03.880Z,9.50
2022-12-22T05:23:30.614Z,9.50
2022-12-22T05:25:57.326Z,9.50
2022-12-22T05:28:24.280Z,9.60
2022-12-22T05:30:51.221Z,9.50
2022-12-22T05:33:18.265Z,9.60
2022-12-22T05:35:45.045Z,9.60
2022-12-22T05:38:11.902Z,9.50
2022-12-22T05:40:38.758Z,9.60
2022-12-22T05:43:05.751Z,9.60
2022-12-22T05:45:32.684Z,9.50
2022-12-22T05:47:59.572Z,9.50
2022-12-22T05:50:26.622Z,9.50
2022-12-22T05:53:04.460Z,9.50
2022-12-22T05:55:31.542Z,9.50
2022-12-22T05:58:01.716Z,9.50
2022-12-22T06:00:29.383Z,9.50
2022-12-22T06:02:56.449Z,9.60
2022-12-22T06:05:23.449Z,9.50
2022-12-22T06:07:50.219Z,9.50
2022-12-22T06:10:17.478Z,9.50
2022-12-22T06:12:44.204Z,9.60
2022-12-22T06:15:12.262Z,9.60
2022-12-22T06:17:44.414Z,9.60
2022-12-22T06:20:12.864Z,9.50
2022-12-22T06:22:39.479Z,9.60
2022-12-22T06:25:06.296Z,9.60
2022-12-22T06:27:32.957Z,9.50
2022-12-22T06:29:59.644Z,9.50
2022-12-22T06:32:26.286Z,9.60
2022-12-22T06:34:53.117Z,9.60
2022-12-22T06:37:31.589Z,9.60
2022-12-22T06:39:58.393Z,9.60
2022-12-22T06:42:44.011Z,9.50
2022-12-22T06:45:10.998Z,9.60
2022-12-22T06:47:37.665Z,9.60
2022-12-22T06:50:04.643Z,9.60
2022-12-22T06:52:31.411Z,9.60
2022-12-22T06:54:58.078Z,9.60
2022-12-22T06:57:24.720Z,9.60
2022-12-22T06:59:57.249Z,9.60
2022-12-22T07:02:24.918Z,9.60
2022-12-22T07:04:51.811Z,9.60
2022-12-22T07:07:18.660Z,9.60
2022-12-22T07:09:45.262Z,9.60
2022-12-22T07:12:13.470Z,9.50
2022-12-22T07:14:40.394Z,9.50
2022-12-22T07:17:07.170Z,9.50
2022-12-22T07:19:33.929Z,9.60
2022-12-22T07:22:00.672Z,9.60
2022-12-22T07:24:29.262Z,9.60
2022-12-22T07:26:56.051Z,9.60
2022-12-22T07:29:23.159Z,9.60
2022-12-22T07:31:50.134Z,9.60
2022-12-22T07:34:17.095Z,9.50
2022-12-22T07:36:44.152Z,9.60
2022-12-22T07:39:11.723Z,9.50
2022-12-22T07:41:57.161Z,9.50
2022-12-22T07:44:24.449Z,9.50
2022-12-22T07:46:51.170Z,9.50
2022-12-22T07:49:36.738Z,9.50
2022-12-22T07:52:03.570Z,9.60
2022-12-22T07:54:30.353Z,9.60
2022-12-22T07:56:57.287Z,9.60
2022-12-22T07:59:24.145Z,9.60
2022-12-22T08:01:51.069Z,9.60
2022-12-22T08:04:18.124Z,9.60
2022-12-22T08:06:45.020Z,9.60
2022-12-22T08:09:15.990Z,9.60
2022-12-22T08:11:42.879Z,9.60
2022-12-22T08:14:09.575Z,9.70
2022-12-22T08:16:36.377Z,9.70
2022-12-22T08:19:03.105Z,9.70
2022-12-22T08:21:30.476Z,9.70
2022-12-22T08:23:57.154Z,9.70
2022-12-22T08:26:26.637Z,9.70
2022-12-22T08:28:55.531Z,9.70
2022-12-22T08:31:24.459Z,9.70
2022-12-22T08:33:52.186Z,9.80
2022-12-22T08:36:19.082Z,9.80
2022-12-22T08:38:46.341Z,9.80
2022-12-22T08:41:14.411Z,9.80
2022-12-22T08:43:41.307Z,9.80
2022-12-22T08:46:07.949Z,9.80
2022-12-22T08:48:34.616Z,9.80
2022-12-22T08:51:01.464Z,9.80
2022-12-22T08:54:03.465Z,9.80
2022-12-22T08:56:14.837Z,9.80
2022-12-22T08:58:41.565Z,9.80
2022-12-22T09:01:08.465Z,9.90
2022-12-22T09:03:35.301Z,9.80
2022-12-22T09:06:02.662Z,9.90
2022-12-22T09:08:29.337Z,9.90
2022-12-22T09:10:56.165Z,9.90
2022-12-22T09:13:22.907Z,9.90
2022-12-22T09:15:49.747Z,9.90
2022-12-22T09:18:16.397Z,10.00
2022-12-22T09:20:43.140Z,10.00
2022-12-22T09:23:10.045Z,10.00
2022-12-22T09:25:36.854Z,10.00
2022-12-22T09:28:06.698Z,10.00
2022-12-22T09:30:33.381Z,10.00
2022-12-22T09:33:00.169Z,10.10
2022-12-22T09:35:27.264Z,10.00
2022-12-22T09:37:54.039Z,10.00
2022-12-22T09:40:22.243Z,10.00
2022-12-22T09:42:49.203Z,10.10
2022-12-22T09:45:20.220Z,10.10
2022-12-22T09:47:53.789Z,10.10
2022-12-22T09:50:23.430Z,10.10
2022-12-22T09:53:13.347Z,10.20
2022-12-22T09:55:44.777Z,10.20
2022-12-22T09:58:24.031Z,10.20
2022-12-22T10:01:02.163Z,10.20
2022-12-22T10:03:35.510Z,10.20
2022-12-22T10:06:10.644Z,10.30
2022-12-22T10:08:38.060Z,10.30
2022-12-22T10:11:04.748Z,10.30
2022-12-22T10:13:31.973Z,10.30
2022-12-22T10:15:59.280Z,10.30
2022-12-22T10:18:27.124Z,10.30
2022-12-22T10:21:10.356Z,10.40
2022-12-22T10:23:39.146Z,10.30
2022-12-22T10:29:08.869Z,10.40
2022-12-22T10:31:36.995Z,10.30
2022-12-22T10:34:11.539Z,10.30
2022-12-22T10:36:38.603Z,10.30
2022-12-22T10:39:07.137Z,10.30
2022-12-22T10:41:40.179Z,10.20
2022-12-22T10:44:17.003Z,10.20
2022-12-22T10:46:51.349Z,10.20
2022-12-22T10:49:20.116Z,10.20
2022-12-22T10:51:52.500Z,10.20
2022-12-22T10:54:26.694Z,10.20
2022-12-22T10:57:19.744Z,10.20
2022-12-22T10:59:48.419Z,10.20
2022-12-22T11:02:21.825Z,10.20
2022-12-22T11:04:49.397Z,10.20
2022-12-22T11:07:16.132Z,10.20
2022-12-22T11:09:42.862Z,10.20
2022-12-22T11:12:28.541Z,10.20
2022-12-22T11:15:23.986Z,10.20
2022-12-22T11:17:58.774Z,10.20
2022-12-22T11:20:39.470Z,10.20
2022-12-22T11:23:14.927Z,10.20
2022-12-22T11:25:52.881Z,10.20
2022-12-22T11:28:42.736Z,10.20
2022-12-22T11:31:17.549Z,10.20
2022-12-22T11:34:03.396Z,10.20
2022-12-22T11:36:51.835Z,10.20
2022-12-22T11:39:26.044Z,10.20
2022-12-22T11:42:06.105Z,10.20
2022-12-22T11:44:51.927Z,10.20
2022-12-22T11:47:30.138Z,10.20
2022-12-22T11:50:58.517Z,10.20
2022-12-22T11:53:21.381Z,10.20
2022-12-22T11:56:06.848Z,10.20
2022-12-22T11:58:43.162Z,10.20
2022-12-22T12:01:26.442Z,10.20
2022-12-22T12:04:15.421Z,10.20
2022-12-22T12:06:42.164Z,10.20
2022-12-22T12:09:14.959Z,10.30
2022-12-22T12:11:46.603Z,10.50
2022-12-22T12:14:13.357Z,10.50
2022-12-22T12:16:44.388Z,10.60
2022-12-22T12:19:30.546Z,10.60
2022-12-22T12:21:58.611Z,10.60
2022-12-22T12:24:25.293Z,10.60
2022-12-22T12:26:51.992Z,10.60
2022-12-22T12:29:20.191Z,10.60
2022-12-22T12:32:10.472Z,10.60
2022-12-22T12:34:39.931Z,10.70
2022-12-22T12:37:27.264Z,10.80
2022-12-22T12:40:08.089Z,11.00
2022-12-22T12:42:40.620Z,11.10
2022-12-22T12:45:26.112Z,11.20
2022-12-22T12:47:52.912Z,11.20
2022-12-22T12:50:46.408Z,11.20
2022-12-22T12:53:13.774Z,11.10
2022-12-22T12:55:40.341Z,11.10
2022-12-22T12:58:10.999Z,10.90
2022-12-22T13:00:43.167Z,10.90
2022-12-22T13:06:34.724Z,10.70
2022-12-22T13:09:22.270Z,10.60
2022-12-22T13:12:11.766Z,10.60
2022-12-22T13:14:59.047Z,10.50
2022-12-22T13:17:52.456Z,10.40
2022-12-22T13:20:39.401Z,10.40
2022-12-22T13:23:11.773Z,10.40
2022-12-22T13:25:40.786Z,10.30
2022-12-22T13:28:11.194Z,10.30
2022-12-22T13:30:37.968Z,10.30
2022-12-22T13:33:11.049Z,10.30
2022-12-22T13:35:46.592Z,10.30
2022-12-22T13:38:31.242Z,10.30
2022-12-22T13:40:59.354Z,10.30
2022-12-22T13:43:27.646Z,10.20
2022-12-22T13:45:55.348Z,10.20
2022-12-22T13:48:25.317Z,10.20
2022-12-22T13:50:57.156Z,10.20
2022-12-22T13:56:27.270Z,10.20
2022-12-22T13:58:57.840Z,10.20
2022-12-22T14:01:24.605Z,10.10
2022-12-22T14:04:00.813Z,10.10
2022-12-22T14:06:28.514Z,10.10
2022-12-22T14:09:09.403Z,10.10
2022-12-22T14:11:36.134Z,10.00
2022-12-22T14:14:06.619Z,10.00
2022-12-22T14:16:33.310Z,10.00
2022-12-22T14:19:00.304Z,10.00
2022-12-22T14:21:27.228Z,10.10
2022-12-22T14:23:53.913Z,10.10
2022-12-22T14:26:24.321Z,10.10
2022-12-22T14:28:53.374Z,10.10
2022-12-22T14:31:20.379Z,10.10
2022-12-22T14:33:54.341Z,10.10
2022-12-22T14:36:25.449Z,10.10
2022-12-22T14:38:52.429Z,10.10
2022-12-22T14:41:39.025Z,10.20
2022-12-22T14:44:05.858Z,10.20
2022-12-22T14:46:38.573Z,10.20
2022-12-22T14:49:05.900Z,10.20
2022-12-22T14:51:32.642Z,10.20
2022-12-22T14:54:02.631Z,10.10
2022-12-22T14:56:29.483Z,10.10
2022-12-22T14:59:09.855Z,10.10
2022-12-22T15:01:36.684Z,10.10
2022-12-22T15:04:17.801Z,10.10
2022-12-22T15:06:47.917Z,10.10
2022-12-22T15:09:14.580Z,10.00
2022-12-22T15:11:49.261Z,10.00
2022-12-22T15:14:20.991Z,9.90
2022-12-22T15:16:48.191Z,9.80
2022-12-22T15:19:15.663Z,9.70
2022-12-22T15:21:42.517Z,9.60
2022-12-22T15:24:15.260Z,9.50
2022-12-22T15:26:42.476Z,9.50
2022-12-22T15:29:09.276Z,9.30
2022-12-22T15:31:37.025Z,9.30
2022-12-22T15:34:04.399Z,9.20
2022-12-22T15:36:31.017Z,9.20
2022-12-22T15:38:57.765Z,9.10
2022-12-22T15:41:24.450Z,9.10
2022-12-22T15:43:57.971Z,9.10
2022-12-22T15:46:26.841Z,9.00
2022-12-22T15:48:53.797Z,8.90
2022-12-22T15:51:22.483Z,8.90
2022-12-22T15:53:49.364Z,8.90
2022-12-22T15:56:19.995Z,8.90
2022-12-22T15:58:47.998Z,8.90
2022-12-22T16:01:14.694Z,8.90
2022-12-22T16:03:41.570Z,8.90
2022-12-22T16:06:15.849Z,8.90
2022-12-22T16:08:43.916Z,9.00
2022-12-22T16:11:10.615Z,9.00
2022-12-22T16:13:37.714Z,9.00
2022-12-22T16:16:05.036Z,9.00
2022-12-22T16:18:32.426Z,8.90
2022-12-22T16:21:07.091Z,8.90
2022-12-22T16:23:34.482Z,8.90
2022-12-22T16:26:02.458Z,8.90
2022-12-22T16:28:29.909Z,8.90
2022-12-22T16:30:56.993Z,8.90
2022-12-22T16:33:23.822Z,8.90
2022-12-22T16:35:50.547Z,8.90
2022-12-22T16:38:19.179Z,8.90
2022-12-22T16:40:47.488Z,8.90
2022-12-22T16:46:16.505Z,8.90
2022-12-22T16:48:46.134Z,8.90
2022-12-22T16:51:17.420Z,8.90
2022-12-22T16:53:44.790Z,9.00
2022-12-22T16:56:20.465Z,8.90
2022-12-22T16:58:47.661Z,9.00
2022-12-22T17:01:40.813Z,9.00
2022-12-22T17:04:09.525Z,9.00
2022-12-22T17:06:36.546Z,9.00
2022-12-22T17:09:04.803Z,9.00
2022-12-22T17:11:32.592Z,9.00
2022-12-22T17:14:03.319Z,9.00
2022-12-22T17:16:30.130Z,9.00
2022-12-22T17:18:56.938Z,9.00
2022-12-22T17:21:24.092Z,9.00
2022-12-22T17:23:51.975Z,9.00
2022-12-22T17:26:20.838Z,9.10
2022-12-22T17:28:48.693Z,9.10
2022-12-22T17:31:16.607Z,9.10
2022-12-22T17:33:43.225Z,9.10
2022-12-22T17:36:30.335Z,9.10
2022-12-22T17:38:57.290Z,9.10
2022-12-22T17:41:23.987Z,9.20
2022-12-22T17:43:50.679Z,9.10
2022-12-22T17:46:18.201Z,9.10
2022-12-22T17:48:45.668Z,9.10
2022-12-22T17:51:17.188Z,9.20
2022-12-22T17:53:44.376Z,9.10
2022-12-22T17:56:18.722Z,9.20
2022-12-22T17:58:45.795Z,9.10
2022-12-22T18:01:20.224Z,9.20
2022-12-22T18:03:47.402Z,9.20
2022-12-22T18:06:18.006Z,9.20
2022-12-22T18:08:45.379Z,9.20
2022-12-22T18:11:12.510Z,9.20
2022-12-22T18:13:39.688Z,9.20
2022-12-22T18:16:07.522Z,9.20
2022-12-22T18:18:34.240Z,9.20
2022-12-22T18:21:07.465Z,9.20
2022-12-22T18:23:36.397Z,9.20
2022-12-22T18:26:03.844Z,9.20
2022-12-22T18:28:30.525Z,9.20
2022-12-22T18:30:57.238Z,9.20
2022-12-22T18:33:24.140Z,9.20
2022-12-22T18:35:50.896Z,9.20
2022-12-22T18:38:28.170Z,9.20
2022-12-22T18:40:55.248Z,9.30
2022-12-22T18:43:22.235Z,9.20
2022-12-22T18:45:49.064Z,9.20
2022-12-22T18:48:16.197Z,9.20
2022-12-22T18:50:43.313Z,9.20
2022-12-22T18:53:17.801Z,9.20
2022-12-22T18:55:45.733Z,9.20
2022-12-22T18:58:13.544Z,9.20
2022-12-22T19:00:40.528Z,9.20
2022-12-22T19:03:15.251Z,9.20
2022-12-22T19:05:42.241Z,9.20
2022-12-22T19:08:13.031Z,9.30
2022-12-22T19:10:42.734Z,9.30
2022-12-22T19:13:18.715Z,9.30
2022-12-22T19:15:45.552Z,9.30
2022-12-22T19:18:19.902Z,9.30
2022-12-22T19:20:51.414Z,9.30
2022-12-22T19:23:21.509Z,9.30
2022-12-22T19:25:50.484Z,9.40
2022-12-22T19:28:32.959Z,9.30
2022-12-22T19:30:59.876Z,9.40
2022-12-22T19:33:42.915Z,9.40
2022-12-22T19:36:29.662Z,9.40
2022-12-22T19:39:03.363Z,9.40
2022-12-22T19:41:44.728Z,9.40
2022-12-22T19:44:23.684Z,9.40
2022-12-22T19:46:51.178Z,9.40
2022-12-22T19:49:19.784Z,9.40
2022-12-22T19:51:47.186Z,9.40
2022-12-22T19:54:14.419Z,9.40
2022-12-22T19:56:43.955Z,9.40
2022-12-22T19:59:28.241Z,9.40
2022-12-22T20:01:58.928Z,9.40
2022-12-22T20:04:26.205Z,9.50
2022-12-22T20:06:53.024Z,9.50
2022-12-22T20:09:20.160Z,9.50
2022-12-22T20:11:49.327Z,9.50
2022-12-22T20:14:17.763Z,9.60
2022-12-22T20:16:44.885Z,9.50
2022-12-22T20:19:13.677Z,9.50
2022-12-22T20:21:41.420Z,9.50
2022-12-22T20:24:09.399Z,9.60
2022-12-22T20:26:36.309Z,9.60
2022-12-22T20:29:03.018Z,9.60
2022-12-22T20:31:29.711Z,9.60
2022-12-22T20:33:56.499Z,9.60
2022-12-22T20:36:28.522Z,9.60
2022-12-22T20:38:56.332Z,9.60
2022-12-22T20:41:23.103Z,9.60
2022-12-22T20:43:50.209Z,9.60
2022-12-22T20:46:19.652Z,9.60
2022-12-22T20:48:50.817Z,9.70
2022-12-22T20:51:18.763Z,9.60
2022-12-22T20:53:46.781Z,9.60
2022-12-22T20:56:21.630Z,9.70
2022-12-22T20:58:48.671Z,9.70
2022-12-22T21:01:15.536Z,9.70
2022-12-22T21:03:42.494Z,9.70
2022-12-22T21:06:21.501Z,9.70
2022-12-22T21:08:48.188Z,9.70
2022-12-22T21:11:14.863Z,9.80
2022-12-22T21:13:41.528Z,9.70
2022-12-22T21:16:11.279Z,9.70
2022-12-22T21:18:38.479Z,9.70
2022-12-22T21:21:05.338Z,9.70
2022-12-22T21:23:32.235Z,9.70
2022-12-22T21:25:58.869Z,9.70
2022-12-22T21:28:36.050Z,9.70
2022-12-22T21:31:03.076Z,9.70
2022-12-22T21:33:29.728Z,9.70
2022-12-22T21:35:57.243Z,9.80
2022-12-22T21:38:25.399Z,9.80
2022-12-22T21:40:52.188Z,9.80
2022-12-22T21:43:18.827Z,9.80
2022-12-22T21:45:51.802Z,9.80
2022-12-22T21:48:19.351Z,9.80
2022-12-22T21:50:47.089Z,9.80
2022-12-22T21:53:19.847Z,9.80
2022-12-22T21:55:49.074Z,9.80
2022-12-22T21:58:15.928Z,9.80
2022-12-22T22:00:46.018Z,9.80
2022-12-22T22:03:13.522Z,9.80
2022-12-22T22:05:40.221Z,9.80
2022-12-22T22:08:08.246Z,9.80
2022-12-22T22:10:36.484Z,9.80
2022-12-22T22:13:03.532Z,9.80
2022-12-22T22:15:31.033Z,9.80
2022-12-22T22:18:02.983Z,9.80
2022-12-22T22:20:33.307Z,9.90
2022-12-22T22:23:00.118Z,9.90
2022-12-22T22:25:26.849Z,9.90
2022-12-22T22:27:53.822Z,9.90
2022-12-22T22:30:22.124Z,9.90
2022-12-22T22:32:49.235Z,9.90
2022-12-22T22:35:16.427Z,9.90
2022-12-22T22:37:45.563Z,10.00
2022-12-22T22:40:15.709Z,10.00
2022-12-22T22:42:42.462Z,10.00
2022-12-22T22:45:11.383Z,10.00
2022-12-22T22:47:38.680Z,10.00
2022-12-22T22:50:08.885Z,10.00
2022-12-22T22:52:36.098Z,10.00
2022-12-22T22:55:02.940Z,10.00
2022-12-22T22:57:29.660Z,10.00
2022-12-22T22:59:56.522Z,10.00
2022-12-22T23:02:23.627Z,10.00
2022-12-22T23:04:50.803Z,10.00
2022-12-22T23:07:17.772Z,10.00
2022-12-22T23:09:44.540Z,10.00
2022-12-22T23:12:14.736Z,10.00
2022-12-22T23:14:41.329Z,10.00
2022-12-22T23:22:53.400Z,10.00
2022-12-22T23:25:20.057Z,10.00
2022-12-22T23:27:46.709Z,9.90
2022-12-22T23:30:13.670Z,9.90
2022-12-22T23:32:40.266Z,9.90
2022-12-22T23:35:07.236Z,9.90
2022-12-22T23:37:33.895Z,9.90
2022-12-22T23:40:25.001Z,9.90
2022-12-22T23:42:51.646Z,9.90
2022-12-22T23:45:21.592Z,9.90
2022-12-22T23:47:48.301Z,9.90
2022-12-22T23:50:14.992Z,9.90
2022-12-22T23:52:47.305Z,10.00
2022-12-22T23:55:16.052Z,10.00
2022-12-22T23:57:42.981Z,10.00
